Wolftown, Virginia
Current Conditions -  °F | °C
As of 6:53 PM on Wednesday 26 Nov 2014 (Local Time) from KCHO Reporting Station
Overcast Overcast  
Wind Chill: 37°   Ceiling: 9000
Heat Index: 37°   Visibility: 9mi
Dew Point: 35°   Wind: 3mph
Humidity: 93%   Direction: 240°WSW
Pressure: 29.96"   Gusts: NA
Location:  38.36°N, 78.35°W
Report Text: KCHO 262353Z 24003KT 9SM OVC090 03/02 A2996 RMK AO2 SLP147 60011 I6000 T00280017 10028 20011 51001
Loading
Personal Weather Stations






























Interactive Weather Map New forecast layout! Learn more

10-Day Weather Forecast

Advertisements
Track Severe Weather on mobile